Time;durP1;ratioP1;P1;durP2;ratioP2;P2;SDS_P1;SDS_P2;PMS_P1;PMS_P2;Temp;Humidity;BMP_temperature;BMP_pressure;BME280_temperature;BME280_humidity;BME280_pressure;Samples;Min_cycle;Max_cycle;Signal;HPM_P1;HPM_P2
2021/10/04 00:00:23;;;;;;;21.82;16.90;;;;;;;11.58;73.40;100321.72;1610578;89;21905;-86
2021/10/04 00:02:51;;;;;;;24.18;16.97;;;;;;;11.59;73.45;100322.05;1613805;87;21548;-85
2021/10/04 00:05:17;;;;;;;22.73;16.67;;;;;;;11.62;73.56;100324.37;1612235;89;21069;-86
2021/10/04 00:07:43;;;;;;;24.67;18.65;;;;;;;11.66;73.63;100329.69;1612262;87;21045;-86
2021/10/04 00:10:12;;;;;;;24.45;17.75;;;;;;;11.71;73.72;100332.70;1612450;89;21064;-85
2021/10/04 00:12:38;;;;;;;29.23;19.62;;;;;;;11.79;73.79;100335.28;1610928;87;21812;-86
2021/10/04 00:15:07;;;;;;;31.65;23.98;;;;;;;11.79;73.79;100335.28;1611174;87;21757;-86
2021/10/04 00:17:33;;;;;;;28.27;19.48;;;;;;;11.80;73.89;100335.62;1611449;87;21015;-86
2021/10/04 00:19:59;;;;;;;22.73;17.35;;;;;;;11.80;73.97;100340.96;1611388;87;21108;-85
2021/10/04 00:22:25;;;;;;;23.57;16.67;;;;;;;11.83;74.02;100339.27;1607371;89;21448;-86
2021/10/04 00:24:51;;;;;;;24.70;16.87;;;;;;;11.87;74.10;100341.91;1608655;89;22242;-85
2021/10/04 00:27:17;;;;;;;21.45;16.30;;;;;;;11.89;74.15;100345.25;1608669;88;21035;-85
2021/10/04 00:29:43;;;;;;;28.30;18.02;;;;;;;11.91;74.19;100349.89;1607779;89;21027;-85
2021/10/04 00:32:09;;;;;;;27.73;17.20;;;;;;;11.93;74.25;100350.53;1607114;89;21547;-85
2021/10/04 00:34:35;;;;;;;22.62;16.90;;;;;;;11.95;74.30;100348.53;1606166;87;21527;-84
2021/10/04 00:37:01;;;;;;;26.52;17.57;;;;;;;11.95;74.36;100353.38;1621661;87;21566;-84
2021/10/04 00:39:27;;;;;;;22.10;17.40;;;;;;;11.98;74.40;100338.31;1636223;87;21054;-84
2021/10/04 00:41:53;;;;;;;23.10;16.65;;;;;;;11.99;74.44;100350.67;1635235;87;21113;-83
2021/10/04 00:44:19;;;;;;;23.00;16.80;;;;;;;12.00;74.47;100351.47;1609795;87;21082;-83
2021/10/04 00:46:45;;;;;;;19.67;15.93;;;;;;;12.00;74.50;100350.14;1607532;89;21087;-83
2021/10/04 00:49:11;;;;;;;25.72;17.07;;;;;;;11.98;74.54;100345.49;1610338;87;21507;-83
2021/10/04 00:51:37;;;;;;;26.55;17.98;;;;;;;11.98;74.60;100352.17;1609749;89;21592;-83
2021/10/04 00:54:03;;;;;;;29.70;19.05;;;;;;;11.97;74.66;100352.67;1606723;89;21055;-82
2021/10/04 00:56:31;;;;;;;25.70;16.65;;;;;;;11.96;74.66;100356.34;1606554;89;21102;-83
2021/10/04 00:58:57;;;;;;;23.02;17.52;;;;;;;11.95;74.71;100359.22;1580677;89;21069;-82
2021/10/04 01:01:28;;;;;;;27.15;18.05;;;;;;;11.94;74.75;100358.88;1604840;89;21069;-83
2021/10/04 01:03:51;;;;;;;25.72;17.50;;;;;;;11.93;74.80;100349.20;1605305;88;21069;-83
2021/10/04 01:06:17;;;;;;;24.37;18.02;;;;;;;11.92;74.81;100353.73;1605195;89;21034;-83
2021/10/04 01:08:43;;;;;;;22.37;16.57;;;;;;;11.91;74.85;100359.25;1605132;89;21049;-83
2021/10/04 01:11:09;;;;;;;25.08;17.50;;;;;;;11.90;74.90;100354.91;1605474;89;21539;-82
2021/10/04 01:13:35;;;;;;;25.10;17.60;;;;;;;11.91;74.93;100356.58;1580495;89;21171;-82
2021/10/04 01:16:01;;;;;;;24.50;18.07;;;;;;;11.90;74.98;100355.73;1622979;88;21500;-82
2021/10/04 01:18:27;;;;;;;24.55;16.95;;;;;;;11.88;75.01;100360.95;1605410;88;21522;-82
2021/10/04 01:20:54;;;;;;;26.33;17.67;;;;;;;11.85;75.06;100355.97;1608624;87;21551;-82
2021/10/04 01:23:20;;;;;;;24.18;18.20;;;;;;;11.81;75.09;100355.98;1619625;87;21038;-83
2021/10/04 01:25:46;;;;;;;26.35;17.98;;;;;;;11.78;75.15;100355.85;1620456;87;21456;-82
2021/10/04 01:28:12;;;;;;;23.00;18.55;;;;;;;11.77;75.18;100357.35;1619849;87;21094;-83
2021/10/04 01:30:38;;;;;;;24.05;16.75;;;;;;;11.76;75.22;100365.03;1620069;88;21026;-82
2021/10/04 01:33:04;;;;;;;21.12;16.65;;;;;;;11.74;75.26;100365.23;1619195;88;21566;-82
2021/10/04 01:35:30;;;;;;;22.80;17.57;;;;;;;11.78;75.31;100369.71;1618713;88;21098;-82
2021/10/04 01:37:56;;;;;;;25.15;17.52;;;;;;;11.75;75.36;100372.74;1618901;88;21082;-82
2021/10/04 01:40:22;;;;;;;24.00;17.42;;;;;;;11.72;75.41;100371.73;1618964;88;21050;-83
2021/10/04 01:42:48;;;;;;;22.45;17.20;;;;;;;11.67;75.47;100378.94;1619034;88;21030;-82
2021/10/04 01:45:23;;;;;;;25.62;17.62;;;;;;;11.65;75.52;100377.43;1619052;88;21080;-82
2021/10/04 01:47:49;;;;;;;29.00;18.15;;;;;;;11.59;75.57;100373.64;1618565;88;21588;-82
2021/10/04 01:50:15;;;;;;;27.45;18.42;;;;;;;11.54;75.63;100378.17;1617533;88;21789;-83
2021/10/04 01:52:41;;;;;;;25.43;17.82;;;;;;;11.50;75.70;100378.19;1617242;88;21035;-83
2021/10/04 01:55:08;;;;;;;24.20;18.32;;;;;;;11.47;75.74;100386.55;1617193;88;21047;-83
2021/10/04 01:57:34;;;;;;;25.97;17.80;;;;;;;11.43;75.79;100382.57;1617397;88;21047;-83
2021/10/04 02:00:02;;;;;;;27.80;20.60;;;;;;;11.39;75.84;100383.95;1617476;88;21087;-82
2021/10/04 02:02:29;;;;;;;25.37;21.23;;;;;;;11.35;75.88;100378.63;1617587;88;21098;-82
2021/10/04 02:04:55;;;;;;;32.60;21.40;;;;;;;11.32;75.96;100376.81;1617398;88;21035;-82
2021/10/04 02:07:21;;;;;;;31.40;21.27;;;;;;;11.28;76.01;100379.00;1617365;88;21038;-82
2021/10/04 02:09:47;;;;;;;27.15;19.87;;;;;;;11.27;76.10;100377.83;1624668;87;21559;-82
2021/10/04 02:12:15;;;;;;;27.30;20.27;;;;;;;11.24;76.16;100380.36;1640735;87;21057;-82
2021/10/04 02:14:41;;;;;;;33.20;23.38;;;;;;;11.23;76.23;100381.35;1617530;88;21176;-82
2021/10/04 02:17:07;;;;;;;32.15;23.85;;;;;;;11.21;76.26;100384.72;1619872;88;21484;-83
2021/10/04 02:19:33;;;;;;;34.63;24.57;;;;;;;11.24;76.33;100383.02;1619933;87;21081;-82
2021/10/04 02:22:00;;;;;;;31.87;23.40;;;;;;;11.30;76.39;100392.16;1613804;88;21545;-82
2021/10/04 02:24:27;;;;;;;30.27;23.30;;;;;;;11.35;76.42;100387.98;1610641;87;21116;-82
2021/10/04 02:26:53;;;;;;;27.37;20.52;;;;;;;11.36;76.46;100396.83;1610747;88;21159;-82
2021/10/04 02:29:19;;;;;;;26.90;20.45;;;;;;;11.36;76.52;100397.66;1610636;89;21073;-83
2021/10/04 02:31:45;;;;;;;29.20;20.25;;;;;;;11.34;76.56;100405.00;1609650;88;21286;-82
2021/10/04 02:34:11;;;;;;;25.65;19.07;;;;;;;11.31;76.63;100406.68;1609253;89;21072;-82
2021/10/04 02:36:37;;;;;;;25.80;19.52;;;;;;;11.27;76.69;100404.03;1609283;89;21083;-82
2021/10/04 02:39:03;;;;;;;29.07;19.40;;;;;;;11.24;76.76;100400.38;1607896;88;21185;-82
2021/10/04 02:41:29;;;;;;;27.45;19.70;;;;;;;11.22;76.80;100401.06;1582417;89;21082;-83
2021/10/04 02:43:55;;;;;;;24.95;18.90;;;;;;;11.20;76.83;100402.22;1607753;89;21496;-82
2021/10/04 02:46:22;;;;;;;24.65;19.45;;;;;;;11.17;76.87;100405.24;1607698;89;21040;-83
2021/10/04 02:48:48;;;;;;;26.97;20.72;;;;;;;11.15;76.92;100405.94;1607764;89;21063;-82
2021/10/04 02:51:14;;;;;;;26.77;19.95;;;;;;;11.14;76.96;100404.26;1607603;89;21203;-83
2021/10/04 02:53:40;;;;;;;28.67;20.23;;;;;;;11.11;77.01;100406.78;1607445;89;21091;-82
2021/10/04 02:56:06;;;;;;;27.42;20.30;;;;;;;11.10;77.05;100411.78;1607525;88;21082;-82
2021/10/04 02:58:32;;;;;;;25.43;17.82;;;;;;;11.09;77.09;100413.27;1607570;89;21559;-83
2021/10/04 03:00:59;;;;;;;27.52;19.32;;;;;;;11.08;77.14;100415.14;1607629;89;21113;-82
2021/10/04 03:03:25;;;;;;;28.80;19.85;;;;;;;11.10;77.19;100423.80;1607451;89;21162;-82
2021/10/04 03:05:51;;;;;;;31.80;20.70;;;;;;;11.09;77.20;100419.45;1607613;89;21016;-82
2021/10/04 03:08:17;;;;;;;26.23;19.42;;;;;;;11.07;77.25;100432.15;1609785;87;21545;-82
2021/10/04 03:10:43;;;;;;;24.02;18.17;;;;;;;11.06;77.32;100432.30;1610665;89;21072;-82
2021/10/04 03:13:09;;;;;;;26.68;19.27;;;;;;;11.07;77.36;100432.64;1610918;89;21770;-82
2021/10/04 03:15:35;;;;;;;28.83;20.05;;;;;;;11.08;77.39;100433.82;1610601;87;21154;-82
2021/10/04 03:18:01;;;;;;;32.20;19.42;;;;;;;11.09;77.43;100430.13;1610443;87;21131;-83
2021/10/04 03:20:27;;;;;;;26.75;19.50;;;;;;;11.08;77.48;100427.15;1610588;88;21040;-82
2021/10/04 03:22:54;;;;;;;24.92;18.50;;;;;;;11.07;77.50;100429.48;1611956;87;20983;-82
2021/10/04 03:25:21;;;;;;;28.17;18.25;;;;;;;11.05;77.57;100429.33;1612843;89;21540;-82
2021/10/04 03:27:48;;;;;;;28.50;19.17;;;;;;;11.04;77.61;100424.48;1613102;89;21237;-82
2021/10/04 03:30:14;;;;;;;27.32;19.82;;;;;;;11.06;77.65;100437.14;1612924;89;21074;-82
2021/10/04 03:32:40;;;;;;;29.42;19.55;;;;;;;11.08;77.68;100435.66;1612417;88;21531;-82
2021/10/04 03:35:07;;;;;;;28.73;21.97;;;;;;;11.04;77.72;100435.16;1612440;89;21091;-82
2021/10/04 03:37:33;;;;;;;30.82;22.42;;;;;;;11.04;77.77;100437.83;1612547;88;21055;-82
2021/10/04 03:39:59;;;;;;;28.40;21.55;;;;;;;11.00;77.82;100442.68;1612615;88;21846;-82
2021/10/04 03:42:25;;;;;;;33.65;21.90;;;;;;;10.97;77.89;100448.36;1612412;89;21550;-82
2021/10/04 03:44:51;;;;;;;31.25;20.95;;;;;;;10.95;77.94;100450.36;1612585;88;21138;-82
2021/10/04 03:47:18;;;;;;;29.57;20.62;;;;;;;10.94;77.98;100451.34;1612455;89;21047;-82
2021/10/04 03:49:43;;;;;;;31.73;20.00;;;;;;;10.93;78.02;100450.20;1612451;88;21111;-83
2021/10/04 03:52:10;;;;;;;28.77;20.02;;;;;;;10.89;78.08;100452.38;1612273;89;21137;-82
2021/10/04 03:54:36;;;;;;;32.45;20.92;;;;;;;10.89;78.13;100452.88;1612486;88;21083;-82
2021/10/04 03:57:02;;;;;;;35.33;23.92;;;;;;;10.94;78.15;100461.22;1612201;89;21050;-83
2021/10/04 03:59:28;;;;;;;45.25;27.13;;;;;;;10.96;78.18;100456.53;1612461;89;21556;-82
2021/10/04 04:01:54;;;;;;;47.88;28.45;;;;;;;10.96;78.19;100459.20;1612468;88;21050;-83
2021/10/04 04:04:20;;;;;;;46.08;27.30;;;;;;;10.94;78.26;100463.89;1612359;89;21171;-82
2021/10/04 04:06:46;;;;;;;38.38;27.02;;;;;;;10.91;78.30;100462.36;1612247;89;21051;-82
2021/10/04 04:09:12;;;;;;;38.55;27.27;;;;;;;10.88;78.36;100461.88;1612410;88;21115;-82
2021/10/04 04:11:38;;;;;;;35.30;25.12;;;;;;;10.86;78.41;100460.73;1612422;88;21032;-82
2021/10/04 04:14:04;;;;;;;40.55;28.27;;;;;;;10.85;78.45;100455.55;1612457;88;21047;-82
2021/10/04 04:16:30;;;;;;;37.90;26.62;;;;;;;10.82;78.49;100451.89;1612590;88;21957;-82
2021/10/04 04:18:56;;;;;;;36.98;27.20;;;;;;;10.81;78.55;100455.55;1612299;87;21015;-82
2021/10/04 04:21:22;;;;;;;38.63;26.17;;;;;;;10.78;78.58;100455.40;1612092;88;21051;-80
2021/10/04 04:23:48;;;;;;;41.60;28.25;;;;;;;10.75;78.63;100455.75;1607758;88;21043;-82
2021/10/04 04:26:14;;;;;;;35.17;26.65;;;;;;;10.75;78.68;100454.91;1607786;89;21070;-82
2021/10/04 04:28:40;;;;;;;41.55;27.40;;;;;;;10.72;78.70;100453.91;1607914;89;21119;-82
2021/10/04 04:31:06;;;;;;;41.85;29.65;;;;;;;10.68;78.75;100461.42;1609081;89;21083;-82
2021/10/04 04:33:33;;;;;;;48.35;30.55;;;;;;;10.65;78.80;100460.43;1610801;87;21059;-82
2021/10/04 04:35:59;;;;;;;38.73;26.40;;;;;;;10.64;78.85;100453.92;1610602;89;21584;-82
2021/10/04 04:38:25;;;;;;;46.50;28.40;;;;;;;10.58;78.87;100447.44;1610893;89;21543;-82
2021/10/04 04:40:51;;;;;;;40.48;24.60;;;;;;;10.56;78.92;100448.59;1610786;89;21765;-82
2021/10/04 04:43:17;;;;;;;33.98;21.48;;;;;;;10.52;78.97;100445.42;1610457;89;21083;-82
2021/10/04 04:45:43;;;;;;;38.25;26.12;;;;;;;10.47;79.03;100449.95;1610663;89;21059;-82
2021/10/04 04:48:09;;;;;;;37.05;23.83;;;;;;;10.50;79.06;100456.28;1610695;89;21047;-82
2021/10/04 04:50:35;;;;;;;29.70;19.20;;;;;;;10.51;79.10;100453.95;1610553;89;21062;-82
2021/10/04 04:53:01;;;;;;;33.20;22.48;;;;;;;10.51;79.14;100461.11;1610649;88;21589;-82
2021/10/04 04:55:27;;;;;;;41.00;26.87;;;;;;;10.52;79.18;100472.92;1610415;87;21024;-82
2021/10/04 04:57:53;;;;;;;46.88;26.40;;;;;;;10.55;79.21;100473.61;1610470;89;21098;-82
2021/10/04 05:00:19;;;;;;;39.88;25.00;;;;;;;10.58;79.25;100481.27;1610691;89;21400;-82
2021/10/04 05:02:46;;;;;;;48.25;25.90;;;;;;;10.59;79.28;100489.61;1610705;88;21059;-82
2021/10/04 05:05:15;;;;;;;42.60;26.97;;;;;;;10.62;79.31;100494.61;1610599;89;21169;-82
2021/10/04 05:07:41;;;;;;;42.33;24.75;;;;;;;10.65;79.34;100499.11;1610563;88;21055;-82
2021/10/04 05:10:08;;;;;;;37.93;23.92;;;;;;;10.70;79.38;100507.91;1610672;88;21022;-82
2021/10/04 05:12:34;;;;;;;39.67;26.62;;;;;;;10.74;79.41;100513.25;1610674;88;21095;-83
2021/10/04 05:15:00;;;;;;;43.63;24.67;;;;;;;10.78;79.44;100510.58;1610740;88;21303;-83
2021/10/04 05:17:26;;;;;;;41.00;26.52;;;;;;;10.82;79.47;100518.09;1612332;87;21701;-82
2021/10/04 05:19:52;;;;;;;44.60;27.80;;;;;;;10.89;79.49;100523.58;1624269;86;21029;-82
2021/10/04 05:22:18;;;;;;;44.38;28.32;;;;;;;10.94;79.54;100523.92;1615823;88;21037;-82
2021/10/04 05:24:44;;;;;;;44.35;28.23;;;;;;;11.01;79.55;100521.72;1631093;87;21037;-82
2021/10/04 05:27:10;;;;;;;42.00;29.18;;;;;;;11.09;79.57;100518.20;1631249;88;21032;-82
2021/10/04 05:29:38;;;;;;;38.02;25.40;;;;;;;11.18;79.59;100515.86;1631190;87;21518;-82
2021/10/04 05:32:05;;;;;;;35.70;23.50;;;;;;;11.26;79.62;100509.14;1615018;88;21000;-82
2021/10/04 05:34:35;;;;;;;36.73;24.15;;;;;;;11.36;79.65;100507.13;1631312;86;21033;-82
2021/10/04 05:37:01;;;;;;;34.48;24.65;;;;;;;11.44;79.65;100513.75;1631394;88;21037;-82
2021/10/04 05:39:27;;;;;;;42.15;23.12;;;;;;;11.52;79.69;100519.08;1631264;88;21041;-82
2021/10/04 05:41:53;;;;;;;35.83;23.83;;;;;;;11.63;79.70;100515.69;1631269;87;21175;-82
2021/10/04 05:44:20;;;;;;;38.48;22.70;;;;;;;11.72;79.74;100518.67;1631187;87;21073;-83
2021/10/04 05:46:46;;;;;;;37.00;21.52;;;;;;;11.81;79.75;100518.98;1631242;87;21533;-83
2021/10/04 05:49:12;;;;;;;56.25;32.08;;;;;;;11.92;79.78;100515.92;1631119;88;21460;-82
2021/10/04 05:51:37;;;;;;;53.55;30.23;;;;;;;12.07;79.81;100524.02;1631193;87;20953;-82
2021/10/04 05:54:03;;;;;;;53.45;27.55;;;;;;;12.24;79.79;100521.57;1631253;88;21188;-82
2021/10/04 05:56:29;;;;;;;49.83;27.85;;;;;;;12.34;79.77;100528.34;1631169;87;21444;-82
2021/10/04 05:58:56;;;;;;;71.33;30.20;;;;;;;12.45;79.75;100533.25;1616673;88;21106;-82
2021/10/04 06:01:22;;;;;;;41.50;23.38;;;;;;;12.60;79.75;100531.14;1613113;89;21086;-82
2021/10/04 06:03:48;;;;;;;27.50;19.50;;;;;;;12.95;79.72;100534.00;1612965;89;21104;-82
2021/10/04 06:06:14;;;;;;;24.82;17.30;;;;;;;13.36;79.66;100531.80;1613160;89;21739;-83
2021/10/04 06:08:40;;;;;;;25.57;17.50;;;;;;;13.75;79.63;100531.48;1613009;89;21035;-82
2021/10/04 06:11:06;;;;;;;28.50;17.23;;;;;;;13.96;79.58;100534.73;1612979;89;21523;-82
2021/10/04 06:13:32;;;;;;;24.67;17.82;;;;;;;14.14;79.54;100537.83;1618860;87;20986;-83
2021/10/04 06:15:58;;;;;;;21.73;15.40;;;;;;;14.31;79.44;100540.59;1612347;89;21548;-82
2021/10/04 06:18:24;;;;;;;22.95;14.58;;;;;;;14.46;79.38;100544.06;1611742;88;21814;-82
2021/10/04 06:20:50;;;;;;;19.10;16.10;;;;;;;14.60;79.26;100546.89;1611499;87;21016;-82
2021/10/04 06:23:16;;;;;;;22.17;15.48;;;;;;;14.83;79.11;100552.88;1610881;86;20967;-82
2021/10/04 06:25:42;;;;;;;19.73;15.43;;;;;;;15.09;78.94;100552.27;1610674;89;21059;-83
2021/10/04 06:28:08;;;;;;;31.30;18.80;;;;;;;15.54;78.37;100567.06;1610838;89;21046;-82
2021/10/04 06:30:34;;;;;;;135.68;91.02;;;;;;;15.54;78.37;100567.06;1610737;88;21639;-82
2021/10/04 06:33:00;;;;;;;84.45;57.03;;;;;;;15.67;78.37;100567.13;1610678;89;21475;-82
2021/10/04 06:35:26;;;;;;;37.50;27.55;;;;;;;15.72;78.15;100575.44;1610586;89;21051;-82
2021/10/04 06:37:52;;;;;;;29.82;21.95;;;;;;;15.77;77.91;100575.15;1610655;89;21072;-82
2021/10/04 06:40:18;;;;;;;21.30;16.30;;;;;;;15.84;77.68;100573.83;1610679;89;21106;-82
2021/10/04 06:42:46;;;;;;;20.77;15.20;;;;;;;15.94;77.45;100579.67;1610672;89;21183;-83
2021/10/04 06:45:12;;;;;;;16.95;13.68;;;;;;;16.06;77.22;100581.28;1610596;87;21619;-82
2021/10/04 06:47:38;;;;;;;17.35;14.35;;;;;;;16.04;76.94;100587.39;1610499;89;21036;-82
2021/10/04 06:50:05;;;;;;;23.85;15.13;;;;;;;16.02;76.75;100590.27;1610637;88;21035;-82
2021/10/04 06:52:31;;;;;;;21.05;14.83;;;;;;;15.96;76.47;100593.77;1610721;89;21705;-82
2021/10/04 06:54:57;;;;;;;19.25;14.43;;;;;;;15.86;76.29;100597.34;1610665;89;21929;-83
2021/10/04 06:57:24;;;;;;;17.75;14.80;;;;;;;15.84;76.09;100601.56;1610318;89;37532;-82
2021/10/04 06:59:50;;;;;;;18.37;15.23;;;;;;;15.83;75.87;100599.89;1610881;89;21075;-82
2021/10/04 07:02:16;;;;;;;19.17;14.90;;;;;;;15.84;75.72;100604.25;1610650;89;21055;-82
2021/10/04 07:04:42;;;;;;;20.57;15.20;;;;;;;15.86;75.54;100610.79;1610693;89;21066;-83
2021/10/04 07:07:08;;;;;;;18.62;15.00;;;;;;;15.84;75.36;100611.48;1610660;89;21189;-82
2021/10/04 07:09:35;;;;;;;22.07;15.65;;;;;;;15.85;75.26;100615.33;1610651;89;21034;-82
2021/10/04 07:12:02;;;;;;;19.82;15.20;;;;;;;15.94;75.09;100620.02;1607060;88;21569;-82
2021/10/04 07:14:28;;;;;;;20.50;14.63;;;;;;;15.95;74.89;100618.48;1607247;89;21027;-82
2021/10/04 07:16:54;;;;;;;20.88;15.28;;;;;;;15.94;74.80;100618.67;1608719;89;21831;-83
2021/10/04 07:19:20;;;;;;;23.55;17.12;;;;;;;15.97;74.66;100617.76;1610404;87;21564;-82
2021/10/04 07:21:51;;;;;;;20.95;15.60;;;;;;;15.95;74.54;100623.03;1610637;88;21497;-83
2021/10/04 07:24:14;;;;;;;21.77;16.87;;;;;;;15.89;74.46;100625.19;1617142;87;21035;-82
2021/10/04 07:26:40;;;;;;;23.10;16.75;;;;;;;15.86;74.36;100623.73;1619916;88;21101;-83
2021/10/04 07:29:06;;;;;;;25.08;17.23;;;;;;;15.83;74.30;100617.91;1619923;88;21068;-82
2021/10/04 07:31:32;;;;;;;22.60;16.70;;;;;;;15.81;74.25;100622.64;1619880;88;21173;-83
2021/10/04 07:33:58;;;;;;;20.52;16.32;;;;;;;15.84;74.20;100623.59;1619677;88;21539;-82
2021/10/04 07:36:24;;;;;;;25.05;17.37;;;;;;;15.96;74.15;100623.36;1619843;88;21108;-83
2021/10/04 07:38:50;;;;;;;21.65;16.27;;;;;;;16.10;74.06;100624.25;1620107;88;21074;-83
2021/10/04 07:41:16;;;;;;;24.60;17.20;;;;;;;16.23;73.99;100621.60;1620286;88;21045;-82
2021/10/04 07:43:42;;;;;;;22.10;16.17;;;;;;;16.31;73.89;100629.00;1620146;88;21808;-82
2021/10/04 07:46:09;;;;;;;20.68;15.88;;;;;;;16.34;73.77;100625.90;1619862;88;21078;-83
2021/10/04 07:48:36;;;;;;;21.42;15.63;;;;;;;16.40;73.67;100629.12;1620054;87;21050;-83
2021/10/04 07:51:04;;;;;;;25.05;16.35;;;;;;;16.45;73.61;100625.83;1620295;88;21039;-82
2021/10/04 07:53:31;;;;;;;25.08;16.95;;;;;;;16.47;73.50;100624.59;1620369;87;21590;-83
2021/10/04 07:55:57;;;;;;;21.68;16.35;;;;;;;16.63;73.45;100625.30;1620319;88;21153;-83
2021/10/04 07:58:24;;;;;;;22.75;17.55;;;;;;;16.86;73.37;100631.96;1620118;88;21100;-83
2021/10/04 08:00:50;;;;;;;22.17;15.60;;;;;;;17.07;73.25;100636.33;1620182;86;21042;-82
2021/10/04 08:03:16;;;;;;;26.65;17.30;;;;;;;17.26;73.09;100630.65;1620813;87;21506;-82
2021/10/04 08:05:42;;;;;;;23.10;16.00;;;;;;;17.37;72.98;100628.16;1620218;88;21033;-83
2021/10/04 08:08:08;;;;;;;19.80;16.30;;;;;;;17.51;72.85;100623.59;1620140;88;21201;-82
2021/10/04 08:10:34;;;;;;;23.90;17.52;;;;;;;17.65;72.75;100621.72;1619138;88;21071;-83
2021/10/04 08:13:00;;;;;;;22.15;17.32;;;;;;;17.81;72.58;100628.00;1620218;88;20917;-83
2021/10/04 08:15:26;;;;;;;21.48;16.42;;;;;;;17.92;72.29;100617.40;1620252;88;21037;-83
2021/10/04 08:17:52;;;;;;;21.23;15.60;;;;;;;18.12;72.10;100620.02;1620031;86;21042;-81
2021/10/04 08:20:18;;;;;;;18.92;14.87;;;;;;;18.22;71.92;100619.07;1622741;87;21168;-78
2021/10/04 08:22:44;;;;;;;22.02;16.17;;;;;;;18.25;71.67;100619.98;1620896;86;21714;-77
2021/10/04 08:25:11;;;;;;;19.07;15.70;;;;;;;18.38;71.47;100617.22;1616541;87;20982;-79
2021/10/04 08:27:37;;;;;;;20.27;15.90;;;;;;;18.53;71.22;100621.54;1617384;87;21592;-78
2021/10/04 08:30:04;;;;;;;52.35;17.10;;;;;;;18.65;71.07;100623.84;1620208;87;21563;-78
2021/10/04 08:32:30;;;;;;;20.20;14.90;;;;;;;18.71;70.82;100633.80;1623134;86;21113;-79
2021/10/04 08:34:56;;;;;;;25.90;17.60;;;;;;;18.76;70.58;100628.56;1614145;87;21494;-78
2021/10/04 08:37:22;;;;;;;21.90;16.82;;;;;;;18.76;70.35;100629.91;1617975;87;21022;-79
2021/10/04 08:39:48;;;;;;;19.92;15.28;;;;;;;18.79;70.13;100622.72;1613176;87;21023;-79
2021/10/04 08:42:15;;;;;;;28.75;16.20;;;;;;;18.80;69.82;100632.48;1612870;87;21354;-79
2021/10/04 08:44:41;;;;;;;19.48;16.15;;;;;;;18.86;69.68;100632.44;1617147;87;21086;-79
2021/10/04 08:47:07;;;;;;;23.35;15.18;;;;;;;18.89;69.49;100638.75;1615168;87;21503;-79
2021/10/04 08:49:34;;;;;;;20.90;16.32;;;;;;;18.91;69.34;100639.91;1617892;87;21003;-79
2021/10/04 08:52:00;;;;;;;24.35;17.75;;;;;;;18.91;69.12;100638.55;1624811;87;22124;-79
2021/10/04 08:54:29;;;;;;;26.42;16.40;;;;;;;18.95;69.02;100642.48;1612840;87;21062;-79
2021/10/04 08:56:56;;;;;;;21.67;14.77;;;;;;;19.04;68.90;100628.98;1612583;87;21540;-79
2021/10/04 08:59:22;;;;;;;24.67;16.20;;;;;;;19.21;68.75;100626.05;1612338;87;21002;-79
2021/10/04 09:01:48;;;;;;;23.42;14.45;;;;;;;19.31;68.57;100623.70;1610744;87;21095;-79
2021/10/04 09:04:21;;;;;;;25.55;17.27;;;;;;;19.39;68.31;100617.98;1627832;87;21107;-79
2021/10/04 09:06:47;;;;;;;18.55;14.85;;;;;;;19.35;68.17;100614.06;1630486;87;21054;-78
2021/10/04 09:09:15;;;;;;;30.02;17.65;;;;;;;19.34;68.03;100617.84;1638880;87;21142;-79
2021/10/04 09:11:49;;;;;;;19.55;14.35;;;;;;;19.36;67.92;100620.30;1639161;87;21242;-79
2021/10/04 09:14:19;;;;;;;25.40;15.30;;;;;;;19.40;67.77;100639.94;1639340;87;21523;-79
2021/10/04 09:17:11;;;;;;;25.52;16.02;;;;;;;19.35;67.56;100642.46;1630984;85;21061;-79
2021/10/04 09:19:35;;;;;;;22.35;14.87;;;;;;;19.42;67.41;100636.50;1618764;88;21519;-80
2021/10/04 09:22:21;;;;;;;21.40;14.95;;;;;;;19.47;67.28;100633.66;1593360;88;21305;-79
2021/10/04 09:25:04;;;;;;;20.68;15.20;;;;;;;19.49;67.09;100631.06;1602502;88;21073;-80
2021/10/04 09:27:44;;;;;;;20.97;15.43;;;;;;;19.52;66.98;100632.48;1604447;88;21597;-79
2021/10/04 09:30:19;;;;;;;20.40;15.10;;;;;;;19.54;66.85;100625.80;1581007;90;21080;-80
2021/10/04 09:32:47;;;;;;;18.02;15.13;;;;;;;19.56;66.78;100629.12;1592696;88;21538;-79
2021/10/04 09:35:26;;;;;;;18.20;14.75;;;;;;;19.60;66.72;100632.20;1603975;88;21181;-78
2021/10/04 09:38:03;;;;;;;20.72;15.80;;;;;;;19.72;66.70;100631.75;1609917;88;21148;-78
2021/10/04 09:40:41;;;;;;;21.37;15.32;;;;;;;19.73;66.56;100637.48;1605218;89;21039;-79
2021/10/04 09:43:10;;;;;;;19.50;15.28;;;;;;;19.74;66.47;100640.47;1605224;89;21547;-79
2021/10/04 09:45:36;;;;;;;;;;;;;;;19.81;66.37;100638.52;1600898;89;21105;-79
2021/10/04 09:48:10;;;;;;;18.62;15.28;;;;;;;19.85;66.27;100641.91;1607335;87;22330;-79
2021/10/04 09:50:36;;;;;;;19.50;15.28;;;;;;;19.85;66.15;100654.62;1607628;89;21063;-80
2021/10/04 09:53:03;;;;;;;19.73;15.98;;;;;;;19.92;66.04;100660.79;1606525;87;21056;-79
2021/10/04 09:55:40;;;;;;;21.10;16.40;;;;;;;20.04;65.96;100671.71;1623814;87;21071;-79
2021/10/04 09:58:17;;;;;;;17.32;14.73;;;;;;;20.08;65.87;100671.05;1584563;89;21051;-78
2021/10/04 10:00:52;;;;;;;20.48;15.40;;;;;;;20.09;65.76;100674.59;1613240;87;21229;-78
2021/10/04 10:03:21;;;;;;;23.80;15.40;;;;;;;20.08;65.69;100671.05;1617322;87;21057;-79
2021/10/04 10:05:53;;;;;;;21.93;15.90;;;;;;;20.04;65.53;100666.30;1605548;87;21137;-79
2021/10/04 10:08:22;;;;;;;23.18;17.75;;;;;;;20.01;65.42;100663.52;1607569;87;21029;-79
2021/10/04 10:10:50;;;;;;;25.82;17.42;;;;;;;19.97;65.33;100658.77;1615399;87;21570;-79
2021/10/04 10:13:18;;;;;;;22.35;16.85;;;;;;;19.96;65.22;100651.17;1620420;87;21234;-78
2021/10/04 10:16:18;;;;;;;21.27;15.95;;;;;;;19.99;65.19;100652.07;1624160;87;21038;-79
2021/10/04 10:19:01;;;;;;;24.02;15.45;;;;;;;20.10;65.16;100654.03;1578443;89;21050;-80
2021/10/04 10:21:29;;;;;;;20.55;14.25;;;;;;;20.20;65.05;100649.44;1604866;87;21085;-79
2021/10/04 10:24:06;;;;;;;18.42;15.18;;;;;;;20.28;64.86;100661.36;1610359;88;21510;-79
2021/10/04 10:26:47;;;;;;;23.62;15.95;;;;;;;20.26;64.73;100658.86;1624042;87;21292;-79
2021/10/04 10:29:22;;;;;;;24.10;15.23;;;;;;;20.32;64.69;100659.33;1636538;87;21035;-79
2021/10/04 10:31:57;;;;;;;18.95;13.93;;;;;;;20.39;64.56;100661.95;1616048;88;21055;-79
2021/10/04 10:34:39;;;;;;;18.52;13.40;;;;;;;20.46;64.43;100657.80;1619952;88;21558;-85
2021/10/04 10:37:27;;;;;;;17.82;15.08;;;;;;;20.52;64.33;100664.48;1620300;88;21046;-85
2021/10/04 10:39:57;;;;;;;19.82;14.63;;;;;;;20.58;64.22;100661.41;1620525;88;21413;-86
2021/10/04 10:42:35;;;;;;;21.85;15.70;;;;;;;20.55;64.11;100663.23;1620192;88;21012;-85
2021/10/04 10:45:08;;;;;;;18.35;14.23;;;;;;;20.54;64.04;100668.34;1619466;88;21053;-86
2021/10/04 10:47:40;;;;;;;23.90;15.80;;;;;;;20.68;63.99;100680.14;1619997;88;21068;-85
2021/10/04 10:50:32;;;;;;;26.50;17.17;;;;;;;20.69;63.85;100681.77;1620046;88;21593;-86
2021/10/04 10:53:06;;;;;;;21.57;15.43;;;;;;;20.73;63.83;100674.84;1619975;88;21703;-85
2021/10/04 10:55:40;;;;;;;23.50;15.65;;;;;;;20.77;63.73;100680.11;1619965;88;21033;-86
2021/10/04 10:58:16;;;;;;;23.35;17.40;;;;;;;20.80;63.66;100677.45;1618781;88;21058;-86
2021/10/04 11:00:49;;;;;;;22.40;15.20;;;;;;;20.81;63.62;100677.77;1617256;88;21535;-85
2021/10/04 11:03:21;;;;;;;21.35;16.50;;;;;;;20.88;63.51;100680.68;1614584;88;21532;-86
2021/10/04 11:06:01;;;;;;;23.57;14.98;;;;;;;20.86;63.45;100680.63;1618569;88;22205;-85
2021/10/04 11:08:38;;;;;;;20.50;13.83;;;;;;;20.94;63.37;100681.63;1619346;87;21085;-85
2021/10/04 11:11:15;;;;;;;24.00;13.75;;;;;;;21.06;63.23;100685.22;1620328;88;21058;-85